sensor_id;sensor_type;location;lat;lon;timestamp;pressure;altitude;pressure_sealevel;temperature;humidity
17521;BME280;8878;-33.370;-70.552;2023-09-18T00:00:36;92486.78;;;7.77;100.00
17521;BME280;8878;-33.370;-70.552;2023-09-18T00:03:05;92502.25;;;7.74;100.00
17521;BME280;8878;-33.370;-70.552;2023-09-18T00:05:35;92502.00;;;7.75;100.00
17521;BME280;8878;-33.370;-70.552;2023-09-18T00:08:04;92501.59;;;7.83;100.00
17521;BME280;8878;-33.370;-70.552;2023-09-18T00:10:34;92500.78;;;8.00;100.00
17521;BME280;8878;-33.370;-70.552;2023-09-18T00:13:03;92489.03;;;7.85;100.00
17521;BME280;8878;-33.370;-70.552;2023-09-18T00:15:32;92497.94;;;7.84;100.00
17521;BME280;8878;-33.370;-70.552;2023-09-18T00:18:04;92492.56;;;7.96;100.00
17521;BME280;8878;-33.370;-70.552;2023-09-18T00:20:33;92490.50;;;7.98;100.00
17521;BME280;8878;-33.370;-70.552;2023-09-18T00:23:02;92486.84;;;7.82;100.00
17521;BME280;8878;-33.370;-70.552;2023-09-18T00:25:33;92492.44;;;7.86;100.00
17521;BME280;8878;-33.370;-70.552;2023-09-18T00:28:02;92493.06;;;7.93;100.00
17521;BME280;8878;-33.370;-70.552;2023-09-18T00:30:31;92493.63;;;7.95;100.00
17521;BME280;8878;-33.370;-70.552;2023-09-18T00:33:02;92483.59;;;7.92;100.00
17521;BME280;8878;-33.370;-70.552;2023-09-18T00:35:31;92485.44;;;7.92;100.00
17521;BME280;8878;-33.370;-70.552;2023-09-18T00:38:01;92493.47;;;7.85;100.00
17521;BME280;8878;-33.370;-70.552;2023-09-18T00:40:30;92491.31;;;7.82;100.00
17521;BME280;8878;-33.370;-70.552;2023-09-18T00:42:59;92485.59;;;7.85;100.00
17521;BME280;8878;-33.370;-70.552;2023-09-18T00:45:29;92486.97;;;7.71;100.00
17521;BME280;8878;-33.370;-70.552;2023-09-18T00:47:58;92487.84;;;7.60;100.00
17521;BME280;8878;-33.370;-70.552;2023-09-18T00:50:29;92496.50;;;7.60;100.00
17521;BME280;8878;-33.370;-70.552;2023-09-18T00:52:58;92492.28;;;7.42;100.00
17521;BME280;8878;-33.370;-70.552;2023-09-18T00:55:28;92501.09;;;7.53;100.00
17521;BME280;8878;-33.370;-70.552;2023-09-18T00:57:59;92497.69;;;7.69;100.00
17521;BME280;8878;-33.370;-70.552;2023-09-18T01:00:28;92498.25;;;7.71;100.00
17521;BME280;8878;-33.370;-70.552;2023-09-18T01:02:57;92482.97;;;7.68;100.00
17521;BME280;8878;-33.370;-70.552;2023-09-18T01:05:31;92482.44;;;7.66;100.00
17521;BME280;8878;-33.370;-70.552;2023-09-18T01:08:00;92488.16;;;7.63;100.00
17521;BME280;8878;-33.370;-70.552;2023-09-18T01:10:34;92489.13;;;7.57;100.00
17521;BME280;8878;-33.370;-70.552;2023-09-18T01:13:10;92488.72;;;7.48;100.00
17521;BME280;8878;-33.370;-70.552;2023-09-18T01:15:44;92490.75;;;7.46;100.00
17521;BME280;8878;-33.370;-70.552;2023-09-18T01:18:17;92486.31;;;7.47;100.00
17521;BME280;8878;-33.370;-70.552;2023-09-18T01:20:48;92480.03;;;7.48;100.00
17521;BME280;8878;-33.370;-70.552;2023-09-18T01:23:19;92485.34;;;7.53;100.00
17521;BME280;8878;-33.370;-70.552;2023-09-18T01:25:48;92495.84;;;7.53;100.00
17521;BME280;8878;-33.370;-70.552;2023-09-18T01:28:18;92493.50;;;7.52;100.00
17521;BME280;8878;-33.370;-70.552;2023-09-18T01:30:47;92491.56;;;7.47;100.00
17521;BME280;8878;-33.370;-70.552;2023-09-18T01:33:18;92491.56;;;7.47;100.00
17521;BME280;8878;-33.370;-70.552;2023-09-18T01:35:48;92490.91;;;7.40;100.00
17521;BME280;8878;-33.370;-70.552;2023-09-18T01:38:18;92485.53;;;7.30;100.00
17521;BME280;8878;-33.370;-70.552;2023-09-18T01:40:48;92484.22;;;7.32;100.00
17521;BME280;8878;-33.370;-70.552;2023-09-18T01:43:17;92489.19;;;7.29;100.00
17521;BME280;8878;-33.370;-70.552;2023-09-18T01:45:47;92488.22;;;7.35;100.00
17521;BME280;8878;-33.370;-70.552;2023-09-18T01:48:16;92491.41;;;7.37;100.00
17521;BME280;8878;-33.370;-70.552;2023-09-18T01:50:46;92493.28;;;7.25;100.00
17521;BME280;8878;-33.370;-70.552;2023-09-18T01:53:15;92496.03;;;7.30;100.00
17521;BME280;8878;-33.370;-70.552;2023-09-18T01:55:46;92490.63;;;7.36;100.00
17521;BME280;8878;-33.370;-70.552;2023-09-18T01:58:19;92494.84;;;7.37;100.00
17521;BME280;8878;-33.370;-70.552;2023-09-18T02:00:48;92491.72;;;7.40;100.00
17521;BME280;8878;-33.370;-70.552;2023-09-18T02:03:17;92489.25;;;7.34;100.00
17521;BME280;8878;-33.370;-70.552;2023-09-18T02:05:47;92486.56;;;7.29;100.00
17521;BME280;8878;-33.370;-70.552;2023-09-18T02:08:16;92489.56;;;7.21;100.00
17521;BME280;8878;-33.370;-70.552;2023-09-18T02:10:47;92482.09;;;7.29;100.00
17521;BME280;8878;-33.370;-70.552;2023-09-18T02:13:16;92478.97;;;7.32;100.00
17521;BME280;8878;-33.370;-70.552;2023-09-18T02:15:46;92482.19;;;7.34;100.00
17521;BME280;8878;-33.370;-70.552;2023-09-18T02:18:15;92484.56;;;7.36;100.00
17521;BME280;8878;-33.370;-70.552;2023-09-18T02:20:44;92473.28;;;7.35;100.00
17521;BME280;8878;-33.370;-70.552;2023-09-18T02:23:15;92473.59;;;7.22;100.00
17521;BME280;8878;-33.370;-70.552;2023-09-18T02:25:47;92482.09;;;7.29;100.00
17521;BME280;8878;-33.370;-70.552;2023-09-18T02:28:23;92478.81;;;7.39;100.00
17521;BME280;8878;-33.370;-70.552;2023-09-18T02:30:52;92473.28;;;7.35;100.00
17521;BME280;8878;-33.370;-70.552;2023-09-18T02:33:24;92469.59;;;7.20;100.00
17521;BME280;8878;-33.370;-70.552;2023-09-18T02:35:53;92467.63;;;7.10;100.00
17521;BME280;8878;-33.370;-70.552;2023-09-18T02:38:25;92465.84;;;6.99;100.00
17521;BME280;8878;-33.370;-70.552;2023-09-18T02:41:00;92464.97;;;6.93;100.00
17521;BME280;8878;-33.370;-70.552;2023-09-18T02:43:29;92467.50;;;6.88;100.00
17521;BME280;8878;-33.370;-70.552;2023-09-18T02:46:07;92464.06;;;6.88;100.00
17521;BME280;8878;-33.370;-70.552;2023-09-18T02:48:36;92457.81;;;6.89;100.00
17521;BME280;8878;-33.370;-70.552;2023-09-18T02:51:06;92461.19;;;6.89;100.00
17521;BME280;8878;-33.370;-70.552;2023-09-18T02:53:35;92465.66;;;6.89;100.00
17521;BME280;8878;-33.370;-70.552;2023-09-18T02:56:06;92452.22;;;6.85;100.00
17521;BME280;8878;-33.370;-70.552;2023-09-18T02:58:35;92447.16;;;6.95;100.00
17521;BME280;8878;-33.370;-70.552;2023-09-18T03:01:07;92442.06;;;7.05;100.00
17521;BME280;8878;-33.370;-70.552;2023-09-18T03:03:36;92450.59;;;7.13;100.00
17521;BME280;8878;-33.370;-70.552;2023-09-18T03:06:05;92443.28;;;7.15;100.00
17521;BME280;8878;-33.370;-70.552;2023-09-18T03:08:35;92442.78;;;7.18;100.00
17521;BME280;8878;-33.370;-70.552;2023-09-18T03:11:13;92441.13;;;7.12;100.00
17521;BME280;8878;-33.370;-70.552;2023-09-18T03:13:46;92437.41;;;7.07;100.00
17521;BME280;8878;-33.370;-70.552;2023-09-18T03:16:15;92436.59;;;7.07;100.00
17521;BME280;8878;-33.370;-70.552;2023-09-18T03:18:45;92430.72;;;7.00;100.00
17521;BME280;8878;-33.370;-70.552;2023-09-18T03:21:14;92437.16;;;7.09;100.00
17521;BME280;8878;-33.370;-70.552;2023-09-18T03:23:43;92434.44;;;7.04;100.00
17521;BME280;8878;-33.370;-70.552;2023-09-18T03:26:16;92437.22;;;6.97;100.00
17521;BME280;8878;-33.370;-70.552;2023-09-18T03:28:45;92430.56;;;7.06;100.00
17521;BME280;8878;-33.370;-70.552;2023-09-18T03:31:17;92422.13;;;7.04;100.00
17521;BME280;8878;-33.370;-70.552;2023-09-18T03:33:46;92420.75;;;6.85;100.00
17521;BME280;8878;-33.370;-70.552;2023-09-18T03:36:15;92420.38;;;6.93;100.00
17521;BME280;8878;-33.370;-70.552;2023-09-18T03:38:45;92422.13;;;7.04;100.00
17521;BME280;8878;-33.370;-70.552;2023-09-18T03:41:16;92421.88;;;7.06;100.00
17521;BME280;8878;-33.370;-70.552;2023-09-18T03:43:45;92414.81;;;7.06;100.00
17521;BME280;8878;-33.370;-70.552;2023-09-18T03:46:16;92425.06;;;7.08;100.00
17521;BME280;8878;-33.370;-70.552;2023-09-18T03:48:45;92412.75;;;7.08;100.00
17521;BME280;8878;-33.370;-70.552;2023-09-18T03:51:14;92410.66;;;7.11;100.00
17521;BME280;8878;-33.370;-70.552;2023-09-18T03:53:43;92407.56;;;7.14;100.00
17521;BME280;8878;-33.370;-70.552;2023-09-18T03:56:14;92402.09;;;7.15;100.00
17521;BME280;8878;-33.370;-70.552;2023-09-18T03:58:44;92397.09;;;7.14;100.00
17521;BME280;8878;-33.370;-70.552;2023-09-18T04:01:16;92399.41;;;7.10;100.00
17521;BME280;8878;-33.370;-70.552;2023-09-18T04:03:45;92403.59;;;7.11;100.00
17521;BME280;8878;-33.370;-70.552;2023-09-18T04:06:15;92397.63;;;6.99;100.00
17521;BME280;8878;-33.370;-70.552;2023-09-18T04:08:47;92397.22;;;6.90;100.00
17521;BME280;8878;-33.370;-70.552;2023-09-18T04:11:19;92401.28;;;6.98;100.00
17521;BME280;8878;-33.370;-70.552;2023-09-18T04:13:52;92397.41;;;7.00;100.00
17521;BME280;8878;-33.370;-70.552;2023-09-18T04:16:21;92406.88;;;7.01;100.00
17521;BME280;8878;-33.370;-70.552;2023-09-18T04:18:51;92395.81;;;6.99;100.00
17521;BME280;8878;-33.370;-70.552;2023-09-18T04:21:20;92391.59;;;6.98;100.00
17521;BME280;8878;-33.370;-70.552;2023-09-18T04:23:50;92385.00;;;6.96;100.00
17521;BME280;8878;-33.370;-70.552;2023-09-18T04:26:25;92383.41;;;6.95;100.00
17521;BME280;8878;-33.370;-70.552;2023-09-18T04:28:56;92389.47;;;6.95;100.00
17521;BME280;8878;-33.370;-70.552;2023-09-18T04:31:25;92399.94;;;6.95;100.00
17521;BME280;8878;-33.370;-70.552;2023-09-18T04:33:56;92393.66;;;6.96;100.00
17521;BME280;8878;-33.370;-70.552;2023-09-18T04:36:25;92388.41;;;6.96;100.00
17521;BME280;8878;-33.370;-70.552;2023-09-18T04:38:54;92388.72;;;7.00;100.00
17521;BME280;8878;-33.370;-70.552;2023-09-18T04:41:25;92375.38;;;7.01;100.00
17521;BME280;8878;-33.370;-70.552;2023-09-18T04:43:54;92381.66;;;7.00;100.00
17521;BME280;8878;-33.370;-70.552;2023-09-18T04:46:24;92375.84;;;6.98;100.00
17521;BME280;8878;-33.370;-70.552;2023-09-18T04:48:53;92383.25;;;7.01;100.00
17521;BME280;8878;-33.370;-70.552;2023-09-18T04:51:22;92375.84;;;6.98;100.00
17521;BME280;8878;-33.370;-70.552;2023-09-18T04:53:51;92370.03;;;6.96;100.00
17521;BME280;8878;-33.370;-70.552;2023-09-18T04:56:21;92363.22;;;6.95;100.00
17521;BME280;8878;-33.370;-70.552;2023-09-18T04:58:55;92370.13;;;7.01;100.00
17521;BME280;8878;-33.370;-70.552;2023-09-18T05:01:25;92377.78;;;7.03;100.00
17521;BME280;8878;-33.370;-70.552;2023-09-18T05:03:54;92377.53;;;7.04;100.00
17521;BME280;8878;-33.370;-70.552;2023-09-18T05:06:23;92374.34;;;7.02;100.00
17521;BME280;8878;-33.370;-70.552;2023-09-18T05:08:53;92366.72;;;7.01;100.00
17521;BME280;8878;-33.370;-70.552;2023-09-18T05:11:22;92369.28;;;6.96;100.00
17521;BME280;8878;-33.370;-70.552;2023-09-18T05:13:51;92368.06;;;7.03;100.00
17521;BME280;8878;-33.370;-70.552;2023-09-18T05:16:24;92362.75;;;6.98;100.00
17521;BME280;8878;-33.370;-70.552;2023-09-18T05:18:53;92361.13;;;6.97;100.00
17521;BME280;8878;-33.370;-70.552;2023-09-18T05:21:22;92367.53;;;7.01;100.00
17521;BME280;8878;-33.370;-70.552;2023-09-18T05:23:53;92360.97;;;7.04;100.00
17521;BME280;8878;-33.370;-70.552;2023-09-18T05:26:22;92345.81;;;7.06;100.00
17521;BME280;8878;-33.370;-70.552;2023-09-18T05:28:53;92347.06;;;7.03;100.00
17521;BME280;8878;-33.370;-70.552;2023-09-18T05:31:24;92344.69;;;6.85;100.00
17521;BME280;8878;-33.370;-70.552;2023-09-18T05:33:53;92340.41;;;6.79;100.00
17521;BME280;8878;-33.370;-70.552;2023-09-18T05:36:22;92344.13;;;6.83;100.00
17521;BME280;8878;-33.370;-70.552;2023-09-18T05:38:52;92341.44;;;6.78;100.00
17521;BME280;8878;-33.370;-70.552;2023-09-18T05:41:21;92344.94;;;6.84;100.00
17521;BME280;8878;-33.370;-70.552;2023-09-18T05:43:53;92334.91;;;6.97;100.00
17521;BME280;8878;-33.370;-70.552;2023-09-18T05:46:25;92326.66;;;7.05;100.00
17521;BME280;8878;-33.370;-70.552;2023-09-18T05:48:54;92334.06;;;7.08;100.00
17521;BME280;8878;-33.370;-70.552;2023-09-18T05:51:25;92331.97;;;7.11;100.00
17521;BME280;8878;-33.370;-70.552;2023-09-18T05:53:54;92320.44;;;7.12;100.00
17521;BME280;8878;-33.370;-70.552;2023-09-18T05:56:23;92316.16;;;7.05;100.00
17521;BME280;8878;-33.370;-70.552;2023-09-18T05:58:52;92322.38;;;6.99;100.00
17521;BME280;8878;-33.370;-70.552;2023-09-18T06:01:22;92320.88;;;6.87;100.00
17521;BME280;8878;-33.370;-70.552;2023-09-18T06:03:53;92312.28;;;6.91;100.00
17521;BME280;8878;-33.370;-70.552;2023-09-18T06:06:23;92320.53;;;7.00;100.00
17521;BME280;8878;-33.370;-70.552;2023-09-18T06:08:52;92312.28;;;7.08;100.00
17521;BME280;8878;-33.370;-70.552;2023-09-18T06:11:22;92311.78;;;7.11;100.00
17521;BME280;8878;-33.370;-70.552;2023-09-18T06:13:52;92317.97;;;7.05;100.00
17521;BME280;8878;-33.370;-70.552;2023-09-18T06:16:21;92313.94;;;6.97;100.00
17521;BME280;8878;-33.370;-70.552;2023-09-18T06:18:52;92313.75;;;7.04;100.00
17521;BME280;8878;-33.370;-70.552;2023-09-18T06:21:22;92323.22;;;7.05;100.00
17521;BME280;8878;-33.370;-70.552;2023-09-18T06:23:51;92315.19;;;7.12;100.00
17521;BME280;8878;-33.370;-70.552;2023-09-18T06:26:21;92306.97;;;7.03;100.00
17521;BME280;8878;-33.370;-70.552;2023-09-18T06:28:50;92297.22;;;7.03;100.00
17521;BME280;8878;-33.370;-70.552;2023-09-18T06:31:20;92301.22;;;6.89;100.00
17521;BME280;8878;-33.370;-70.552;2023-09-18T06:33:50;92310.13;;;6.88;100.00
17521;BME280;8878;-33.370;-70.552;2023-09-18T06:36:21;92300.19;;;6.90;100.00
17521;BME280;8878;-33.370;-70.552;2023-09-18T06:38:50;92295.50;;;6.92;100.00
17521;BME280;8878;-33.370;-70.552;2023-09-18T06:41:20;92295.16;;;7.05;100.00
17521;BME280;8878;-33.370;-70.552;2023-09-18T06:43:49;92284.03;;;7.15;100.00
17521;BME280;8878;-33.370;-70.552;2023-09-18T06:46:19;92286.44;;;7.17;100.00
17521;BME280;8878;-33.370;-70.552;2023-09-18T06:48:48;92287.97;;;7.18;100.00
17521;BME280;8878;-33.370;-70.552;2023-09-18T06:51:19;92287.75;;;7.19;100.00
17521;BME280;8878;-33.370;-70.552;2023-09-18T06:53:48;92273.31;;;7.00;100.00
17521;BME280;8878;-33.370;-70.552;2023-09-18T06:56:17;92270.25;;;6.86;100.00
17521;BME280;8878;-33.370;-70.552;2023-09-18T06:58:47;92274.06;;;6.79;100.00
17521;BME280;8878;-33.370;-70.552;2023-09-18T07:01:18;92266.66;;;6.76;100.00
17521;BME280;8878;-33.370;-70.552;2023-09-18T07:03:47;92259.06;;;6.74;100.00
17521;BME280;8878;-33.370;-70.552;2023-09-18T07:06:17;92257.59;;;6.83;100.00
17521;BME280;8878;-33.370;-70.552;2023-09-18T07:08:48;92251.16;;;6.91;100.00
17521;BME280;8878;-33.370;-70.552;2023-09-18T07:11:18;92241.63;;;6.85;100.00
17521;BME280;8878;-33.370;-70.552;2023-09-18T07:13:47;92243.50;;;6.89;100.00
17521;BME280;8878;-33.370;-70.552;2023-09-18T07:16:16;92237.25;;;6.90;100.00
17521;BME280;8878;-33.370;-70.552;2023-09-18T07:18:46;92241.47;;;6.91;100.00
17521;BME280;8878;-33.370;-70.552;2023-09-18T07:21:15;92235.75;;;6.94;100.00
17521;BME280;8878;-33.370;-70.552;2023-09-18T07:23:48;92234.28;;;7.03;100.00
17521;BME280;8878;-33.370;-70.552;2023-09-18T07:26:18;92229.72;;;7.16;100.00
17521;BME280;8878;-33.370;-70.552;2023-09-18T07:28:47;92233.22;;;7.21;100.00
17521;BME280;8878;-33.370;-70.552;2023-09-18T07:31:17;92239.50;;;7.20;100.00
17521;BME280;8878;-33.370;-70.552;2023-09-18T07:33:46;92234.00;;;7.22;100.00
17521;BME280;8878;-33.370;-70.552;2023-09-18T07:36:16;92237.25;;;7.29;100.00
17521;BME280;8878;-33.370;-70.552;2023-09-18T07:38:45;92226.75;;;7.29;100.00
17521;BME280;8878;-33.370;-70.552;2023-09-18T07:41:16;92227.38;;;7.36;100.00
17521;BME280;8878;-33.370;-70.552;2023-09-18T07:43:47;92226.56;;;7.35;100.00
17521;BME280;8878;-33.370;-70.552;2023-09-18T07:46:17;92220.53;;;7.35;100.00
17521;BME280;8878;-33.370;-70.552;2023-09-18T07:48:46;92216.91;;;7.41;100.00
17521;BME280;8878;-33.370;-70.552;2023-09-18T07:51:15;92221.94;;;7.42;100.00
17521;BME280;8878;-33.370;-70.552;2023-09-18T07:53:44;92219.16;;;7.32;100.00
17521;BME280;8878;-33.370;-70.552;2023-09-18T07:56:15;92215.09;;;7.41;100.00
17521;BME280;8878;-33.370;-70.552;2023-09-18T07:58:45;92204.41;;;7.48;100.00
17521;BME280;8878;-33.370;-70.552;2023-09-18T08:01:15;92215.69;;;7.48;100.00
17521;BME280;8878;-33.370;-70.552;2023-09-18T08:03:44;92216.81;;;7.31;100.00
17521;BME280;8878;-33.370;-70.552;2023-09-18T08:06:13;92214.03;;;7.21;100.00
17521;BME280;8878;-33.370;-70.552;2023-09-18T08:08:45;92226.75;;;7.29;100.00
17521;BME280;8878;-33.370;-70.552;2023-09-18T08:11:17;92233.50;;;7.46;100.00
17521;BME280;8878;-33.370;-70.552;2023-09-18T08:13:46;92229.19;;;7.57;100.00
17521;BME280;8878;-33.370;-70.552;2023-09-18T08:16:16;92232.19;;;7.66;100.00
17521;BME280;8878;-33.370;-70.552;2023-09-18T08:18:45;92228.03;;;7.70;100.00
17521;BME280;8878;-33.370;-70.552;2023-09-18T08:21:14;92230.28;;;7.61;100.00
17521;BME280;8878;-33.370;-70.552;2023-09-18T08:23:44;92233.00;;;7.44;100.00
17521;BME280;8878;-33.370;-70.552;2023-09-18T08:26:13;92239.09;;;7.50;100.00
17521;BME280;8878;-33.370;-70.552;2023-09-18T08:28:46;92238.56;;;7.53;100.00
17521;BME280;8878;-33.370;-70.552;2023-09-18T08:31:15;92231.78;;;7.52;100.00
17521;BME280;8878;-33.370;-70.552;2023-09-18T08:33:44;92234.81;;;7.44;100.00
17521;BME280;8878;-33.370;-70.552;2023-09-18T08:36:14;92245.50;;;7.37;100.00
17521;BME280;8878;-33.370;-70.552;2023-09-18T08:38:43;92246.16;;;7.28;100.00
17521;BME280;8878;-33.370;-70.552;2023-09-18T08:41:13;92244.75;;;7.20;100.00
17521;BME280;8878;-33.370;-70.552;2023-09-18T08:43:45;92251.81;;;7.20;100.00
17521;BME280;8878;-33.370;-70.552;2023-09-18T08:46:17;92243.22;;;7.24;100.00
17521;BME280;8878;-33.370;-70.552;2023-09-18T08:48:49;92246.34;;;7.21;100.00
17521;BME280;8878;-33.370;-70.552;2023-09-18T08:51:19;92253.13;;;7.17;100.00
17521;BME280;8878;-33.370;-70.552;2023-09-18T08:53:48;92250.16;;;7.14;100.00
17521;BME280;8878;-33.370;-70.552;2023-09-18T08:56:18;92252.06;;;7.18;100.00
17521;BME280;8878;-33.370;-70.552;2023-09-18T08:58:50;92256.22;;;7.14;100.00
17521;BME280;8878;-33.370;-70.552;2023-09-18T09:01:20;92268.47;;;7.08;100.00
17521;BME280;8878;-33.370;-70.552;2023-09-18T09:03:49;92257.34;;;7.01;100.00
17521;BME280;8878;-33.370;-70.552;2023-09-18T09:06:18;92257.97;;;7.08;100.00
17521;BME280;8878;-33.370;-70.552;2023-09-18T09:08:47;92256.69;;;7.11;100.00
17521;BME280;8878;-33.370;-70.552;2023-09-18T09:11:16;92265.97;;;7.19;100.00
17521;BME280;8878;-33.370;-70.552;2023-09-18T09:13:46;92256.38;;;7.07;100.00
17521;BME280;8878;-33.370;-70.552;2023-09-18T09:16:17;92266.53;;;7.04;100.00
17521;BME280;8878;-33.370;-70.552;2023-09-18T09:18:50;92268.00;;;6.95;100.00
17521;BME280;8878;-33.370;-70.552;2023-09-18T09:21:20;92274.06;;;6.95;100.00
17521;BME280;8878;-33.370;-70.552;2023-09-18T09:23:51;92269.97;;;7.04;100.00
17521;BME280;8878;-33.370;-70.552;2023-09-18T09:26:24;92275.78;;;7.06;100.00
17521;BME280;8878;-33.370;-70.552;2023-09-18T09:28:53;92274.97;;;7.06;100.00
17521;BME280;8878;-33.370;-70.552;2023-09-18T09:31:28;92281.19;;;7.00;100.00
17521;BME280;8878;-33.370;-70.552;2023-09-18T09:33:58;92280.63;;;6.98;100.00
17521;BME280;8878;-33.370;-70.552;2023-09-18T09:36:34;92286.09;;;6.96;100.00
17521;BME280;8878;-33.370;-70.552;2023-09-18T09:39:04;92283.50;;;6.96;100.00
17521;BME280;8878;-33.370;-70.552;2023-09-18T09:41:34;92286.72;;;7.03;100.00
17521;BME280;8878;-33.370;-70.552;2023-09-18T09:44:05;92295.22;;;7.11;100.00
17521;BME280;8878;-33.370;-70.552;2023-09-18T09:46:37;92300.47;;;7.11;100.00
17521;BME280;8878;-33.370;-70.552;2023-09-18T09:49:06;92299.00;;;6.98;100.00
17521;BME280;8878;-33.370;-70.552;2023-09-18T09:51:36;92306.63;;;6.99;100.00
17521;BME280;8878;-33.370;-70.552;2023-09-18T09:54:05;92301.72;;;7.03;100.00
17521;BME280;8878;-33.370;-70.552;2023-09-18T09:56:46;92311.06;;;6.99;100.00
17521;BME280;8878;-33.370;-70.552;2023-09-18T09:59:15;92309.41;;;6.93;100.00
17521;BME280;8878;-33.370;-70.552;2023-09-18T10:01:48;92315.63;;;6.87;100.00
17521;BME280;8878;-33.370;-70.552;2023-09-18T10:04:19;92314.31;;;6.89;100.00
17521;BME280;8878;-33.370;-70.552;2023-09-18T10:06:52;92313.13;;;6.97;100.00
17521;BME280;8878;-33.370;-70.552;2023-09-18T10:09:27;92315.13;;;6.90;100.00
17521;BME280;8878;-33.370;-70.552;2023-09-18T10:11:57;92314.59;;;6.88;100.00
17521;BME280;8878;-33.370;-70.552;2023-09-18T10:14:31;92326.69;;;6.89;100.00
17521;BME280;8878;-33.370;-70.552;2023-09-18T10:17:11;92323.47;;;6.87;100.00
17521;BME280;8878;-33.370;-70.552;2023-09-18T10:19:49;92329.69;;;6.81;100.00
17521;BME280;8878;-33.370;-70.552;2023-09-18T10:22:27;92326.81;;;6.82;100.00
17521;BME280;8878;-33.370;-70.552;2023-09-18T10:25:11;92315.69;;;6.92;100.00
17521;BME280;8878;-33.370;-70.552;2023-09-18T10:27:45;92313.00;;;6.87;100.00
17521;BME280;8878;-33.370;-70.552;2023-09-18T10:30:16;92323.00;;;6.73;100.00
17521;BME280;8878;-33.370;-70.552;2023-09-18T10:32:48;92316.47;;;6.59;100.00
17521;BME280;8878;-33.370;-70.552;2023-09-18T10:35:19;92312.19;;;6.53;100.00
17521;BME280;8878;-33.370;-70.552;2023-09-18T10:37:49;92316.47;;;6.59;100.00
17521;BME280;8878;-33.370;-70.552;2023-09-18T10:40:21;92300.41;;;6.55;100.00
17521;BME280;8878;-33.370;-70.552;2023-09-18T10:42:52;92296.06;;;6.61;100.00
17521;BME280;8878;-33.370;-70.552;2023-09-18T10:45:23;92294.78;;;6.63;100.00
17521;BME280;8878;-33.370;-70.552;2023-09-18T10:47:55;92295.44;;;6.71;100.00
17521;BME280;8878;-33.370;-70.552;2023-09-18T10:50:25;92293.66;;;6.76;100.00
17521;BME280;8878;-33.370;-70.552;2023-09-18T10:52:57;92299.56;;;6.83;100.00
17521;BME280;8878;-33.370;-70.552;2023-09-18T10:55:27;92303.44;;;6.97;100.00
17521;BME280;8878;-33.370;-70.552;2023-09-18T10:57:58;92313.59;;;7.11;100.00
17521;BME280;8878;-33.370;-70.552;2023-09-18T11:00:29;92321.06;;;7.19;100.00
17521;BME280;8878;-33.370;-70.552;2023-09-18T11:03:13;92317.56;;;7.30;100.00
17521;BME280;8878;-33.370;-70.552;2023-09-18T11:05:45;92320.03;;;7.20;100.00
17521;BME280;8878;-33.370;-70.552;2023-09-18T11:08:27;92328.47;;;7.22;100.00
17521;BME280;8878;-33.370;-70.552;2023-09-18T11:11:02;92330.47;;;7.15;100.00
17521;BME280;8878;-33.370;-70.552;2023-09-18T11:13:38;92338.41;;;6.86;100.00
17521;BME280;8878;-33.370;-70.552;2023-09-18T11:16:17;92343.03;;;6.79;100.00
17521;BME280;8878;-33.370;-70.552;2023-09-18T11:18:51;92342.06;;;6.85;100.00
17521;BME280;8878;-33.370;-70.552;2023-09-18T11:21:25;92340.16;;;6.97;100.00
17521;BME280;8878;-33.370;-70.552;2023-09-18T11:23:59;92343.28;;;6.94;100.00
17521;BME280;8878;-33.370;-70.552;2023-09-18T11:26:30;92350.66;;;6.97;100.00
17521;BME280;8878;-33.370;-70.552;2023-09-18T11:29:00;92351.16;;;6.94;100.00
17521;BME280;8878;-33.370;-70.552;2023-09-18T11:31:48;92353.66;;;6.89;100.00
17521;BME280;8878;-33.370;-70.552;2023-09-18T11:34:23;92352.00;;;6.83;100.00
17521;BME280;8878;-33.370;-70.552;2023-09-18T11:36:53;92358.53;;;6.81;100.00
17521;BME280;8878;-33.370;-70.552;2023-09-18T11:39:35;92355.81;;;6.92;100.00
17521;BME280;8878;-33.370;-70.552;2023-09-18T11:42:10;92350.34;;;6.94;100.00
17521;BME280;8878;-33.370;-70.552;2023-09-18T11:44:40;92359.31;;;6.81;100.00
17521;BME280;8878;-33.370;-70.552;2023-09-18T11:47:13;92372.44;;;6.81;100.00
17521;BME280;8878;-33.370;-70.552;2023-09-18T11:49:52;92367.25;;;6.69;100.00
17521;BME280;8878;-33.370;-70.552;2023-09-18T11:52:25;92370.34;;;6.66;100.00
17521;BME280;8878;-33.370;-70.552;2023-09-18T11:54:57;92378.59;;;6.75;100.00
17521;BME280;8878;-33.370;-70.552;2023-09-18T11:57:27;92376.25;;;6.90;100.00
17521;BME280;8878;-33.370;-70.552;2023-09-18T11:59:57;92377.69;;;6.81;100.00
17521;BME280;8878;-33.370;-70.552;2023-09-18T12:02:38;92374.81;;;6.83;100.00
17521;BME280;8878;-33.370;-70.552;2023-09-18T12:05:14;92366.38;;;6.97;100.00
17521;BME280;8878;-33.370;-70.552;2023-09-18T12:07:45;92365.59;;;7.14;100.00
17521;BME280;8878;-33.370;-70.552;2023-09-18T12:10:15;92369.19;;;7.24;100.00
17521;BME280;8878;-33.370;-70.552;2023-09-18T12:12:45;92368.00;;;7.15;100.00
17521;BME280;8878;-33.370;-70.552;2023-09-18T12:15:17;92376.25;;;7.07;100.00
17521;BME280;8878;-33.370;-70.552;2023-09-18T12:17:46;92371.94;;;7.18;100.00
17521;BME280;8878;-33.370;-70.552;2023-09-18T12:20:18;92367.25;;;7.20;100.00
17521;BME280;8878;-33.370;-70.552;2023-09-18T12:22:48;92358.53;;;7.14;100.00
17521;BME280;8878;-33.370;-70.552;2023-09-18T12:25:18;92354.16;;;7.20;100.00
17521;BME280;8878;-33.370;-70.552;2023-09-18T12:27:52;92355.56;;;7.44;100.00
17521;BME280;8878;-33.370;-70.552;2023-09-18T12:30:22;92359.19;;;7.60;100.00
17521;BME280;8878;-33.370;-70.552;2023-09-18T12:32:53;92353.59;;;7.73;100.00
17521;BME280;8878;-33.370;-70.552;2023-09-18T12:35:29;92365.13;;;7.72;100.00
17521;BME280;8878;-33.370;-70.552;2023-09-18T12:37:59;92360.50;;;7.79;100.00
17521;BME280;8878;-33.370;-70.552;2023-09-18T12:40:31;92353.47;;;7.84;100.00
17521;BME280;8878;-33.370;-70.552;2023-09-18T12:43:01;92361.16;;;7.91;100.00
17521;BME280;8878;-33.370;-70.552;2023-09-18T12:45:33;92368.34;;;7.96;100.00
17521;BME280;8878;-33.370;-70.552;2023-09-18T12:48:03;92357.13;;;8.05;100.00
17521;BME280;8878;-33.370;-70.552;2023-09-18T12:50:34;92357.75;;;8.12;100.00
17521;BME280;8878;-33.370;-70.552;2023-09-18T12:53:10;92358.84;;;8.16;100.00
17521;BME280;8878;-33.370;-70.552;2023-09-18T12:55:41;92356.63;;;8.30;100.00
17521;BME280;8878;-33.370;-70.552;2023-09-18T12:58:11;92359.28;;;8.30;100.00